Time;durP1;ratioP1;P1;durP2;ratioP2;P2;SDS_P1;SDS_P2;PMS_P1;PMS_P2;Temp;Humidity;BMP_temperature;BMP_pressure;BME280_temperature;BME280_humidity;BME280_pressure;Samples;Min_cycle;Max_cycle;Signal;HPM_P1;HPM_P2
2022/09/25 00:01:25;;;;;;;11.73;1.33;;;14.90;90.10;;;;;;5072622;28;20039;-70
2022/09/25 00:03:51;;;;;;;4.45;1.75;;;14.90;90.10;;;;;;5072326;28;20066;-70
2022/09/25 00:06:20;;;;;;;8.30;1.52;;;14.90;90.10;;;;;;5073006;28;20074;-70
2022/09/25 00:08:46;;;;;;;11.52;1.95;;;14.90;90.10;;;;;;5076695;28;20106;-70
2022/09/25 00:11:21;;;;;;;8.32;1.23;;;14.90;90.10;;;;;;5076062;28;20492;-70
2022/09/25 00:13:47;;;;;;;6.72;1.42;;;14.90;90.10;;;;;;5076660;28;20024;-70
2022/09/25 00:16:16;;;;;;;5.97;1.38;;;14.80;90.10;;;;;;5076752;28;20048;-70
2022/09/25 00:21:29;;;;;;;6.30;1.10;;;14.80;90.20;;;;;;5076745;28;20036;-71
2022/09/25 00:23:59;;;;;;;10.25;1.67;;;14.80;90.20;;;;;;5075894;28;20075;-70
2022/09/25 00:26:27;;;;;;;15.20;2.20;;;14.80;90.20;;;;;;5069427;28;20476;-70
2022/09/25 00:28:54;;;;;;;6.85;1.30;;;14.80;90.30;;;;;;5056622;28;20037;-70
2022/09/25 00:31:24;;;;;;;8.80;1.45;;;14.80;90.30;;;;;;5055983;28;20043;-70
2022/09/25 00:33:51;;;;;;;10.88;1.45;;;14.80;90.70;;;;;;5056583;28;20032;-70
2022/09/25 00:36:17;;;;;;;11.13;1.50;;;14.70;90.40;;;;;;5056460;28;20090;-70
2022/09/25 00:38:45;;;;;;;8.18;1.10;;;14.70;90.50;;;;;;5055579;28;20025;-70
2022/09/25 00:41:11;;;;;;;9.05;2.15;;;14.70;90.50;;;;;;5056071;28;20037;-70
2022/09/25 00:43:45;;;;;;;6.80;1.60;;;14.70;90.60;;;;;;5056091;28;20388;-70
2022/09/25 00:46:29;;;;;;;6.38;1.17;;;14.70;90.60;;;;;;5055653;28;20056;-70
2022/09/25 00:49:24;;;;;;;;;;;14.70;90.70;;;;;;5056728;28;20040;-70
2022/09/25 00:52:03;;;;;;;10.00;1.60;;;14.60;90.70;;;;;;5050202;28;19916;-71
2022/09/25 00:54:35;;;;;;;9.38;1.15;;;14.60;90.60;;;;;;5056196;28;20094;-70
2022/09/25 00:57:05;;;;;;;10.55;1.50;;;14.60;90.70;;;;;;5055884;28;20037;-70
2022/09/25 00:59:37;;;;;;;8.15;1.42;;;14.60;90.80;;;;;;5055414;28;20029;-70
2022/09/25 01:02:03;;;;;;;4.82;1.55;;;14.60;90.80;;;;;;5056103;28;20399;-70
2022/09/25 01:04:33;;;;;;;7.00;1.48;;;14.50;90.80;;;;;;5055898;28;20029;-70
2022/09/25 01:06:59;;;;;;;10.30;1.92;;;14.50;90.90;;;;;;5055277;28;20028;-70
2022/09/25 01:09:26;;;;;;;10.20;1.20;;;14.60;90.90;;;;;;5055877;28;20075;-70
2022/09/25 01:11:53;;;;;;;8.68;1.48;;;14.60;90.90;;;;;;5055665;28;20040;-70
2022/09/25 01:14:19;;;;;;;5.88;1.33;;;14.50;90.90;;;;;;5054815;28;20130;-70
2022/09/25 01:16:58;;;;;;;10.85;1.42;;;14.50;90.90;;;;;;5055702;28;20049;-70
2022/09/25 01:19:51;;;;;;;10.45;1.65;;;14.50;90.90;;;;;;5055383;28;20040;-70
2022/09/25 01:22:19;;;;;;;8.32;1.30;;;14.50;90.90;;;;;;5055264;28;20029;-70
2022/09/25 01:25:03;;;;;;;11.02;1.27;;;14.50;90.90;;;;;;5055135;28;20077;-70
2022/09/25 01:27:50;;;;;;;13.90;1.90;;;14.50;90.90;;;;;;5068433;28;20079;-70
2022/09/25 01:30:18;;;;;;;14.20;1.42;;;14.50;90.90;;;;;;5075338;28;20029;-70
2022/09/25 01:32:58;;;;;;;14.38;1.48;;;14.40;90.90;;;;;;5075194;28;20032;-70
2022/09/25 01:35:38;;;;;;;10.40;1.48;;;14.50;91.00;;;;;;5074263;28;20047;-71
2022/09/25 01:38:31;;;;;;;8.75;1.13;;;14.50;90.90;;;;;;5075336;28;20035;-70
2022/09/25 01:41:29;;;;;;;5.53;1.30;;;14.50;90.90;;;;;;5075062;28;20035;-70
2022/09/25 01:43:57;;;;;;;12.60;1.50;;;14.40;90.90;;;;;;5074944;28;20033;-70
2022/09/25 01:46:27;;;;;;;10.77;1.67;;;14.40;90.90;;;;;;5075075;28;20036;-70
2022/09/25 01:49:06;;;;;;;12.77;1.60;;;14.40;90.90;;;;;;5074446;28;20028;-70
2022/09/25 01:51:37;;;;;;;4.20;0.90;;;14.40;90.90;;;;;;5074717;28;20063;-70
2022/09/25 01:54:09;;;;;;;8.80;1.67;;;14.40;90.90;;;;;;5074660;28;20403;-70
2022/09/25 01:56:57;;;;;;;7.75;1.35;;;14.40;91.00;;;;;;5073872;28;20036;-70
2022/09/25 01:59:29;;;;;;;17.20;1.58;;;14.40;91.00;;;;;;5074643;28;20067;-70
2022/09/25 02:01:57;;;;;;;9.07;1.35;;;14.30;91.00;;;;;;5074865;28;20056;-70
2022/09/25 02:04:28;;;;;;;10.45;1.55;;;14.30;91.00;;;;;;5073953;28;20044;-70
2022/09/25 02:06:57;;;;;;;8.88;1.40;;;14.40;91.10;;;;;;5074857;28;20025;-70
2022/09/25 02:09:46;;;;;;;8.18;1.58;;;14.30;91.10;;;;;;5073730;28;20449;-70
2022/09/25 02:12:16;;;;;;;8.32;1.52;;;14.30;91.10;;;;;;5074397;28;20036;-70
2022/09/25 02:14:47;;;;;;;7.07;1.63;;;14.40;91.20;;;;;;5074531;28;20036;-70
2022/09/25 02:22:54;;;;;;;6.68;1.20;;;14.30;91.10;;;;;;5054011;28;20044;-70
2022/09/25 02:25:34;;;;;;;9.52;1.10;;;14.30;91.10;;;;;;5053267;28;20032;-70
2022/09/25 02:28:00;;;;;;;13.93;1.58;;;14.30;91.10;;;;;;5054481;28;20166;-70
2022/09/25 02:30:26;;;;;;;11.02;1.50;;;14.30;91.10;;;;;;5052842;28;20025;-70
2022/09/25 02:32:52;;;;;;;3.85;1.10;;;14.30;91.10;;;;;;5054123;28;20029;-70
2022/09/25 02:35:18;;;;;;;6.65;1.63;;;14.30;91.10;;;;;;5053624;28;20130;-70
2022/09/25 02:37:44;;;;;;;9.98;1.20;;;14.30;91.10;;;;;;5053169;28;20084;-69
2022/09/25 02:40:10;;;;;;;12.02;1.30;;;14.20;91.00;;;;;;5054105;28;20045;-70
2022/09/25 02:42:53;;;;;;;4.00;1.10;;;14.20;91.00;;;;;;5054140;28;20025;-70
2022/09/25 02:45:49;;;;;;;7.57;1.30;;;14.20;91.10;;;;;;5053472;28;20095;-70
2022/09/25 02:48:18;;;;;;;11.93;1.63;;;14.20;91.10;;;;;;5054161;28;20351;-69
2022/09/25 02:51:01;;;;;;;7.45;1.70;;;14.20;91.00;;;;;;5053790;28;20661;-70
2022/09/25 02:53:42;;;;;;;12.23;1.55;;;14.20;91.00;;;;;;5053050;28;20385;-70
2022/09/25 02:56:33;;;;;;;13.18;1.65;;;14.10;91.00;;;;;;5053749;28;20045;-70
2022/09/25 02:59:14;;;;;;;4.78;1.02;;;14.20;91.10;;;;;;5052962;28;20362;-69
2022/09/25 03:01:42;;;;;;;6.80;1.30;;;14.10;91.00;;;;;;5053566;28;20195;-70
2022/09/25 03:04:09;;;;;;;5.93;1.30;;;14.10;91.30;;;;;;5053745;28;20075;-69
2022/09/25 03:06:37;;;;;;;6.10;1.40;;;14.20;91.00;;;;;;5052769;28;20477;-70
2022/09/25 03:09:04;;;;;;;9.40;1.30;;;14.10;91.00;;;;;;5053314;28;20407;-70
2022/09/25 03:11:29;;;;;;;5.68;1.02;;;14.10;91.00;;;;;;5053353;28;20063;-70
2022/09/25 03:14:01;;;;;;;5.78;1.10;;;14.10;91.00;;;;;;5053022;28;20064;-70
2022/09/25 03:16:50;;;;;;;5.93;1.10;;;14.10;91.00;;;;;;5053334;28;20102;-69
2022/09/25 03:19:18;;;;;;;6.72;1.17;;;14.10;91.00;;;;;;5053167;28;20029;-70
2022/09/25 03:21:45;;;;;;;11.95;1.20;;;14.10;91.00;;;;;;5052760;28;20043;-70
2022/09/25 03:24:10;;;;;;;5.40;1.10;;;14.10;90.90;;;;;;5053412;28;20082;-70
2022/09/25 03:26:36;;;;;;;8.82;1.40;;;14.10;90.90;;;;;;5052087;28;20434;-69
2022/09/25 03:29:02;;;;;;;9.07;1.17;;;14.00;90.90;;;;;;5053231;28;20025;-70
2022/09/25 03:31:29;;;;;;;3.58;1.33;;;14.00;90.90;;;;;;5053181;28;20124;-70
2022/09/25 03:33:56;;;;;;;8.82;1.50;;;14.00;91.00;;;;;;5052515;28;20120;-70
2022/09/25 03:36:24;;;;;;;6.75;1.02;;;14.00;91.00;;;;;;5053140;28;20045;-70
2022/09/25 03:38:52;;;;;;;10.35;0.93;;;14.00;91.00;;;;;;5053312;28;20048;-70
2022/09/25 03:41:20;;;;;;;8.00;1.75;;;14.00;91.00;;;;;;5052172;28;20044;-70
2022/09/25 03:43:50;;;;;;;11.02;1.40;;;14.00;91.00;;;;;;5053009;28;20033;-70
2022/09/25 03:46:18;;;;;;;9.43;1.42;;;14.00;91.00;;;;;;5053169;28;20186;-69
2022/09/25 03:48:45;;;;;;;7.78;1.20;;;14.00;91.00;;;;;;5052108;28;20543;-70
2022/09/25 03:51:11;;;;;;;9.10;1.13;;;14.00;91.00;;;;;;5052641;28;20036;-70
2022/09/25 03:53:37;;;;;;;4.75;0.90;;;14.00;91.00;;;;;;5052969;28;20037;-70
2022/09/25 03:56:06;;;;;;;7.72;1.55;;;14.00;91.00;;;;;;5052140;28;20044;-70
2022/09/25 03:58:32;;;;;;;1.85;0.77;;;13.90;90.90;;;;;;5053033;28;20033;-70
2022/09/25 04:00:58;;;;;;;4.85;1.10;;;13.90;90.80;;;;;;5052625;28;20032;-69
2022/09/25 04:03:26;;;;;;;4.43;0.88;;;13.90;90.70;;;;;;5052279;28;20071;-70
2022/09/25 04:05:52;;;;;;;8.32;1.20;;;13.80;90.60;;;;;;5052887;28;20029;-70
2022/09/25 04:08:25;;;;;;;4.05;0.80;;;13.80;90.60;;;;;;5052867;28;20108;-69
2022/09/25 04:10:53;;;;;;;4.43;0.98;;;13.80;90.60;;;;;;5052023;28;20388;-70
2022/09/25 04:13:19;;;;;;;3.88;1.15;;;13.70;90.60;;;;;;5052760;28;20029;-70
2022/09/25 04:15:45;;;;;;;6.35;1.13;;;13.80;90.50;;;;;;5051977;28;20067;-70
2022/09/25 04:18:10;;;;;;;7.35;1.08;;;13.70;90.50;;;;;;5052904;28;20025;-70
2022/09/25 04:20:37;;;;;;;3.10;1.10;;;13.70;90.40;;;;;;5052739;28;20033;-70
2022/09/25 04:23:03;;;;;;;7.07;1.08;;;13.70;90.40;;;;;;5052021;28;20834;-70
2022/09/25 04:25:32;;;;;;;3.17;0.88;;;13.70;90.30;;;;;;5052815;28;20033;-70
2022/09/25 04:27:58;;;;;;;2.92;0.82;;;13.70;90.30;;;;;;5052918;28;20424;-70
2022/09/25 04:30:25;;;;;;;5.90;1.85;;;13.60;90.20;;;;;;5052068;28;20171;-70
2022/09/25 04:35:36;;;;;;;3.90;1.20;;;13.60;90.20;;;;;;5052619;28;20093;-70
2022/09/25 04:38:01;;;;;;;5.43;1.42;;;13.60;90.10;;;;;;5051782;28;20033;-70
2022/09/25 04:40:28;;;;;;;2.80;1.27;;;13.60;90.10;;;;;;5052353;28;20036;-69
2022/09/25 04:42:57;;;;;;;7.45;1.38;;;13.50;90.10;;;;;;5052625;28;20037;-70
2022/09/25 04:45:24;;;;;;;2.85;0.80;;;13.60;90.10;;;;;;5051743;28;20060;-70
2022/09/25 04:47:49;;;;;;;4.43;0.82;;;13.50;90.00;;;;;;5052332;28;20036;-70
2022/09/25 04:50:15;;;;;;;3.60;0.95;;;13.50;90.00;;;;;;5052318;28;20032;-69
2022/09/25 04:52:41;;;;;;;4.47;1.02;;;13.50;90.00;;;;;;5052157;28;20057;-70
2022/09/25 04:55:07;;;;;;;11.15;1.15;;;13.40;90.00;;;;;;5055657;28;20045;-69
2022/09/25 04:57:32;;;;;;;5.63;1.00;;;13.40;90.00;;;;;;5055840;28;20028;-70
2022/09/25 04:59:58;;;;;;;2.17;0.73;;;13.40;90.00;;;;;;5055364;28;20079;-69
2022/09/25 05:02:27;;;;;;;4.43;1.17;;;13.30;90.10;;;;;;5056126;28;20510;-70
2022/09/25 05:04:53;;;;;;;4.88;1.20;;;13.30;90.10;;;;;;5055749;28;20392;-69
2022/09/25 05:07:21;;;;;;;5.40;0.90;;;13.30;90.10;;;;;;5055098;28;20045;-69
2022/09/25 05:09:47;;;;;;;5.20;0.95;;;13.30;90.10;;;;;;5055746;28;20471;-69
2022/09/25 05:12:12;;;;;;;3.67;0.85;;;13.20;90.00;;;;;;5055104;28;20053;-70
2022/09/25 05:14:41;;;;;;;3.22;1.02;;;13.20;90.00;;;;;;5055370;28;20033;-70
2022/09/25 05:17:07;;;;;;;3.30;1.05;;;13.20;90.20;;;;;;5055481;28;20037;-69
2022/09/25 05:19:34;;;;;;;5.82;0.98;;;13.20;89.90;;;;;;5054865;28;20041;-70
2022/09/25 05:22:00;;;;;;;5.43;1.10;;;13.20;89.80;;;;;;5055719;28;20029;-69
2022/09/25 05:24:25;;;;;;;3.13;0.95;;;13.20;89.70;;;;;;5055156;28;20035;-70
2022/09/25 05:26:54;;;;;;;1.85;0.77;;;13.20;89.70;;;;;;5054533;28;20037;-70
2022/09/25 05:29:19;;;;;;;4.15;1.10;;;13.20;89.70;;;;;;5055542;28;20033;-69
2022/09/25 05:31:47;;;;;;;3.05;1.05;;;13.20;89.70;;;;;;5055161;28;20063;-69
2022/09/25 05:34:13;;;;;;;3.78;1.02;;;13.20;89.70;;;;;;5054647;28;20033;-70
2022/09/25 05:36:39;;;;;;;4.57;1.30;;;13.10;89.70;;;;;;5054946;28;20055;-69
2022/09/25 05:39:04;;;;;;;4.40;1.27;;;13.10;89.70;;;;;;5054922;28;20036;-69
2022/09/25 05:41:33;;;;;;;2.72;0.90;;;13.00;90.10;;;;;;5054641;28;20040;-70
2022/09/25 05:44:05;;;;;;;1.08;0.88;;;13.00;89.70;;;;;;5055084;28;20037;-70
2022/09/25 05:46:34;;;;;;;2.35;1.00;;;12.90;89.70;;;;;;5054975;28;20040;-70
2022/09/25 05:49:00;;;;;;;6.68;1.10;;;12.90;89.70;;;;;;5054260;28;20107;-70
2022/09/25 05:51:26;;;;;;;4.72;1.00;;;12.80;89.80;;;;;;5054653;28;20048;-69
2022/09/25 05:53:53;;;;;;;4.50;1.00;;;12.70;89.90;;;;;;5055047;28;20032;-70
2022/09/25 05:56:19;;;;;;;5.20;1.02;;;12.70;90.00;;;;;;5054150;28;20091;-70
2022/09/25 05:58:46;;;;;;;2.58;1.00;;;12.70;90.00;;;;;;5055008;28;20025;-69
2022/09/25 06:01:12;;;;;;;6.90;1.27;;;12.70;90.00;;;;;;5054336;28;20539;-69
2022/09/25 06:03:38;;;;;;;6.68;1.08;;;12.60;90.10;;;;;;5054475;28;20029;-69
2022/09/25 06:06:04;;;;;;;3.25;1.13;;;12.60;90.10;;;;;;5053999;28;20474;-70
2022/09/25 06:08:34;;;;;;;2.65;0.90;;;12.60;90.10;;;;;;5053919;28;20453;-69
2022/09/25 06:11:01;;;;;;;2.15;0.93;;;12.60;90.20;;;;;;5054683;28;20460;-69
2022/09/25 06:13:29;;;;;;;2.13;0.93;;;12.60;90.20;;;;;;5054626;28;20064;-69
2022/09/25 06:15:55;;;;;;;4.28;1.30;;;12.60;90.20;;;;;;5053892;28;20396;-69
2022/09/25 06:18:23;;;;;;;4.60;1.10;;;12.60;90.20;;;;;;5054134;28;20089;-69
2022/09/25 06:20:50;;;;;;;3.20;1.20;;;12.60;90.20;;;;;;5054192;28;20112;-70
2022/09/25 06:23:16;;;;;;;9.40;1.20;;;12.50;90.20;;;;;;5053613;28;20392;-69
2022/09/25 06:25:42;;;;;;;10.27;2.35;;;12.50;90.20;;;;;;5054098;28;20029;-69
2022/09/25 06:28:10;;;;;;;2.95;0.98;;;12.60;90.30;;;;;;5054435;28;20036;-69
2022/09/25 06:30:37;;;;;;;5.70;1.13;;;12.50;90.20;;;;;;5053341;28;20550;-69
2022/09/25 06:33:11;;;;;;;6.53;0.98;;;12.50;90.30;;;;;;5054022;28;20017;-69
2022/09/25 06:35:47;;;;;;;1.80;0.82;;;12.50;90.30;;;;;;5053936;28;20047;-69
2022/09/25 06:38:15;;;;;;;6.20;1.10;;;12.50;90.40;;;;;;5053656;28;20123;-70
2022/09/25 06:40:41;;;;;;;3.88;1.08;;;12.60;90.40;;;;;;5054051;28;20029;-69
2022/09/25 06:43:12;;;;;;;4.57;1.00;;;12.50;90.40;;;;;;5053934;28;20029;-70
2022/09/25 06:45:38;;;;;;;2.15;0.88;;;12.50;90.60;;;;;;5053265;28;20021;-70
2022/09/25 06:48:14;;;;;;;3.50;1.17;;;12.60;90.60;;;;;;5053672;28;20476;-69
2022/09/25 06:50:46;;;;;;;3.30;1.13;;;12.60;90.70;;;;;;5053113;28;20029;-69
2022/09/25 06:53:13;;;;;;;3.05;1.05;;;12.60;90.70;;;;;;5053476;28;20107;-70
2022/09/25 06:55:38;;;;;;;2.53;0.80;;;12.60;90.80;;;;;;5053890;28;20041;-69
2022/09/25 06:58:07;;;;;;;4.82;1.00;;;12.60;90.90;;;;;;5052691;28;20104;-69
2022/09/25 07:00:33;;;;;;;3.88;1.15;;;12.70;91.00;;;;;;5053521;28;20036;-70
2022/09/25 07:05:46;;;;;;;4.57;1.60;;;12.70;91.20;;;;;;5052768;28;20549;-69
2022/09/25 07:08:15;;;;;;;2.40;0.90;;;12.80;91.30;;;;;;5053641;28;20029;-70
2022/09/25 07:10:54;;;;;;;5.45;1.15;;;12.80;91.40;;;;;;5053485;28;20413;-70
2022/09/25 07:13:26;;;;;;;3.08;1.38;;;12.80;91.50;;;;;;5052929;28;20029;-70
2022/09/25 07:15:57;;;;;;;8.20;1.20;;;12.80;91.40;;;;;;5052867;28;20507;-70
2022/09/25 07:18:24;;;;;;;4.28;1.23;;;12.90;91.60;;;;;;5053172;28;20036;-70
2022/09/25 07:20:51;;;;;;;9.77;1.25;;;12.90;91.60;;;;;;5052487;28;20449;-69
2022/09/25 07:23:19;;;;;;;14.60;1.33;;;12.90;91.70;;;;;;5053384;28;20041;-69
2022/09/25 07:25:45;;;;;;;5.15;1.00;;;13.00;91.80;;;;;;5052146;28;20487;-69
2022/09/25 07:28:18;;;;;;;1.92;1.10;;;13.00;91.70;;;;;;5053381;28;20021;-69
2022/09/25 07:30:45;;;;;;;5.97;1.33;;;13.00;91.60;;;;;;5053148;28;20032;-69
2022/09/25 07:33:11;;;;;;;10.73;1.23;;;13.10;91.60;;;;;;5052394;28;20476;-69
2022/09/25 07:35:37;;;;;;;4.10;0.95;;;13.10;91.60;;;;;;5052809;28;20120;-69
2022/09/25 07:38:03;;;;;;;5.07;1.00;;;13.10;91.60;;;;;;5053170;28;20491;-69
2022/09/25 07:40:30;;;;;;;5.72;1.20;;;13.10;91.60;;;;;;5052583;28;20076;-69
2022/09/25 07:43:05;;;;;;;3.05;1.00;;;13.10;91.40;;;;;;5053281;28;20115;-69
2022/09/25 07:45:31;;;;;;;10.65;1.27;;;13.10;91.50;;;;;;5052967;28;20043;-69
2022/09/25 07:48:01;;;;;;;5.00;1.25;;;13.10;91.30;;;;;;5052143;28;20400;-70
2022/09/25 07:50:29;;;;;;;3.38;1.35;;;13.20;91.40;;;;;;5052842;28;20041;-69
2022/09/25 07:52:55;;;;;;;8.45;1.70;;;13.20;91.70;;;;;;5052701;28;20048;-69
2022/09/25 07:55:21;;;;;;;1.50;0.82;;;13.20;92.00;;;;;;5052385;28;20041;-69
2022/09/25 07:57:49;;;;;;;3.67;1.42;;;13.30;92.10;;;;;;5053014;28;20427;-69
2022/09/25 08:00:15;;;;;;;8.60;1.10;;;13.40;92.20;;;;;;5052684;28;20041;-70
2022/09/25 08:02:41;;;;;;;6.32;1.10;;;13.50;92.30;;;;;;5051902;28;20491;-69
2022/09/25 08:05:07;;;;;;;5.75;1.20;;;13.60;92.30;;;;;;5052969;28;20060;-69
2022/09/25 08:07:33;;;;;;;4.57;1.58;;;13.70;92.30;;;;;;5053051;28;20057;-70
2022/09/25 08:09:59;;;;;;;7.25;1.25;;;13.80;92.30;;;;;;5052249;28;20515;-69
2022/09/25 08:12:24;;;;;;;3.97;0.93;;;13.80;92.30;;;;;;5052930;28;20036;-70
2022/09/25 08:14:53;;;;;;;1.48;0.93;;;13.90;92.40;;;;;;5052396;28;20029;-70
2022/09/25 08:17:21;;;;;;;5.72;1.13;;;14.00;92.40;;;;;;5052493;28;20036;-69
2022/09/25 08:19:46;;;;;;;3.33;0.90;;;14.10;92.20;;;;;;5052889;28;20033;-70
2022/09/25 08:22:12;;;;;;;6.13;0.98;;;14.10;92.10;;;;;;5051938;28;20029;-69
2022/09/25 08:24:38;;;;;;;5.75;2.08;;;14.20;92.20;;;;;;5052675;28;20492;-69
2022/09/25 08:27:04;;;;;;;7.53;1.02;;;14.30;92.30;;;;;;5052510;28;20472;-69
2022/09/25 08:29:33;;;;;;;5.20;1.52;;;14.30;92.10;;;;;;5055599;28;20032;-69
2022/09/25 08:31:59;;;;;;;4.95;0.90;;;14.30;92.00;;;;;;5056218;28;20044;-70
2022/09/25 08:34:24;;;;;;;2.35;0.90;;;14.30;91.90;;;;;;5056512;28;20033;-70
2022/09/25 08:36:50;;;;;;;4.38;0.80;;;14.40;91.70;;;;;;5055842;28;20059;-70
2022/09/25 08:39:16;;;;;;;6.53;1.35;;;14.40;91.60;;;;;;5056155;28;20044;-70
2022/09/25 08:41:49;;;;;;;3.55;0.95;;;14.40;91.50;;;;;;5056290;28;20101;-70
2022/09/25 08:49:00;;;;;;;5.93;2.40;;;14.50;91.60;;;;;;5055666;28;20118;-69
2022/09/25 08:50:24;;;;;;;1.15;0.93;;;14.60;91.40;;;;;;5055421;28;20036;-70
2022/09/25 08:52:55;;;;;;;1.67;0.73;;;14.60;91.30;;;;;;5055820;28;20061;-70
2022/09/25 08:58:14;;;;;;;7.88;0.80;;;14.70;91.40;;;;;;5055490;28;20420;-69
2022/09/25 09:00:40;;;;;;;3.00;0.80;;;14.70;91.30;;;;;;5055817;28;20036;-70
2022/09/25 09:03:10;;;;;;;6.95;0.95;;;14.70;91.30;;;;;;5055602;28;20104;-70
2022/09/25 09:05:41;;;;;;;2.70;1.10;;;14.70;91.40;;;;;;5055368;28;20044;-70
2022/09/25 09:08:11;;;;;;;6.43;1.10;;;14.80;91.60;;;;;;5055721;28;20055;-70
2022/09/25 09:10:52;;;;;;;3.70;0.88;;;14.90;91.60;;;;;;5055765;28;20021;-70
2022/09/25 09:13:34;;;;;;;6.28;0.70;;;14.90;91.80;;;;;;5054912;28;20087;-70
2022/09/25 09:16:28;;;;;;;3.08;1.02;;;14.90;91.70;;;;;;5055472;28;20063;-70
2022/09/25 09:18:55;;;;;;;4.03;0.93;;;15.00;91.60;;;;;;5038771;28;20068;-70
2022/09/25 09:21:35;;;;;;;3.17;0.80;;;15.10;91.60;;;;;;5055510;28;20049;-70
2022/09/25 09:24:04;;;;;;;1.58;0.80;;;15.20;91.50;;;;;;5054320;28;20036;-71
2022/09/25 09:26:48;;;;;;;4.68;0.80;;;15.20;91.40;;;;;;5052765;28;20439;-72
2022/09/25 09:29:48;;;;;;;1.38;0.40;;;15.30;91.20;;;;;;5054394;28;20059;-71
2022/09/25 09:32:44;;;;;;;6.28;1.08;;;15.40;91.00;;;;;;5053840;28;20035;-71
2022/09/25 09:35:35;;;;;;;2.65;0.70;;;15.40;91.00;;;;;;5055158;28;20040;-71
2022/09/25 09:38:33;;;;;;;3.75;0.70;;;15.40;90.90;;;;;;5055148;28;20029;-72
2022/09/25 09:41:22;;;;;;;3.13;1.23;;;15.40;91.00;;;;;;5052212;28;20033;-72
2022/09/25 09:44:00;;;;;;;13.20;1.02;;;15.40;91.00;;;;;;5055183;28;20058;-73
2022/09/25 09:46:48;;;;;;;5.07;1.42;;;15.40;91.20;;;;;;5054164;28;20040;-71
2022/09/25 09:49:32;;;;;;;10.05;1.42;;;15.40;91.50;;;;;;5053916;28;20045;-72
2022/09/25 09:52:16;;;;;;;7.15;0.98;;;15.50;91.70;;;;;;5053575;28;20053;-71
2022/09/25 09:54:53;;;;;;;7.35;1.42;;;15.50;92.00;;;;;;5053131;28;20033;-72
2022/09/25 09:57:25;;;;;;;6.53;1.10;;;15.50;92.00;;;;;;5055104;28;20101;-72
2022/09/25 09:59:56;;;;;;;6.93;1.02;;;15.60;92.10;;;;;;5054865;28;20480;-71
2022/09/25 10:02:53;;;;;;;2.80;1.20;;;15.60;91.90;;;;;;5053908;28;20033;-69
2022/09/25 10:05:21;;;;;;;1.95;0.70;;;15.70;92.00;;;;;;5054902;28;20052;-69
2022/09/25 10:07:48;;;;;;;4.80;0.82;;;15.80;91.40;;;;;;5053721;28;20029;-70
2022/09/25 10:10:15;;;;;;;7.63;0.90;;;15.90;91.30;;;;;;5054461;28;20033;-70
2022/09/25 10:12:50;;;;;;;5.32;0.90;;;16.00;91.40;;;;;;5054769;28;20408;-70
2022/09/25 10:15:50;;;;;;;4.45;0.80;;;16.10;91.20;;;;;;5053993;28;20166;-70
2022/09/25 10:18:17;;;;;;;1.63;0.50;;;16.20;91.10;;;;;;5054488;28;20036;-69
2022/09/25 10:20:54;;;;;;;4.93;0.93;;;16.20;91.00;;;;;;5054350;28;20041;-70
2022/09/25 10:23:38;;;;;;;5.63;1.27;;;16.30;91.00;;;;;;5053956;28;20043;-70
2022/09/25 10:26:28;;;;;;;5.45;0.90;;;16.30;91.00;;;;;;5053986;28;20402;-70
2022/09/25 10:28:56;;;;;;;5.68;0.82;;;16.20;91.20;;;;;;5053438;28;20127;-70
2022/09/25 10:31:27;;;;;;;5.75;1.00;;;16.20;91.30;;;;;;5054326;28;20056;-70
2022/09/25 10:34:16;;;;;;;5.80;0.82;;;16.20;91.40;;;;;;5054397;28;20124;-70
2022/09/25 10:36:50;;;;;;;4.25;0.80;;;16.10;91.50;;;;;;5053425;28;20033;-70
2022/09/25 10:39:34;;;;;;;3.33;0.70;;;16.10;91.50;;;;;;5054255;28;20361;-70
2022/09/25 10:42:26;;;;;;;2.42;0.70;;;16.20;91.50;;;;;;5054121;28;20453;-70
2022/09/25 10:44:55;;;;;;;1.13;0.70;;;16.20;91.40;;;;;;5053054;28;20548;-70
2022/09/25 10:50:16;;;;;;;5.13;0.85;;;16.30;91.60;;;;;;5052610;28;20029;-70
2022/09/25 10:52:51;;;;;;;2.10;0.70;;;16.30;91.50;;;;;;5053654;28;20431;-70
2022/09/25 10:55:24;;;;;;;3.92;1.08;;;16.30;91.20;;;;;;5053607;28;20518;-70
2022/09/25 10:57:57;;;;;;;7.30;0.83;;;16.40;91.00;;;;;;5053130;28;20090;-70
2022/09/25 11:00:25;;;;;;;2.55;0.70;;;16.50;90.90;;;;;;5053850;28;20056;-70
2022/09/25 11:02:56;;;;;;;5.03;0.68;;;16.50;90.80;;;;;;5053548;28;20377;-70
2022/09/25 11:05:28;;;;;;;7.13;1.17;;;16.60;90.90;;;;;;5053126;28;20067;-70
2022/09/25 11:07:58;;;;;;;4.93;0.90;;;16.60;90.90;;;;;;5053773;28;20032;-70
2022/09/25 11:10:46;;;;;;;4.65;0.88;;;16.70;90.70;;;;;;5053684;28;20029;-70
2022/09/25 11:13:21;;;;;;;5.05;1.13;;;16.70;90.60;;;;;;5053345;28;20392;-70
2022/09/25 11:15:52;;;;;;;7.53;1.33;;;16.80;90.30;;;;;;5053532;28;20052;-70
2022/09/25 11:18:37;;;;;;;4.53;0.82;;;16.80;90.10;;;;;;5052731;28;20036;-70
2022/09/25 11:21:05;;;;;;;6.53;1.02;;;16.90;90.10;;;;;;5053480;28;20028;-70
2022/09/25 11:23:47;;;;;;;6.57;1.27;;;16.90;90.20;;;;;;5053489;28;20389;-70
2022/09/25 11:26:24;;;;;;;5.65;1.00;;;16.90;90.20;;;;;;5052332;28;20127;-70
2022/09/25 11:29:18;;;;;;;5.18;1.00;;;17.00;90.30;;;;;;5053148;28;20036;-70
2022/09/25 11:31:51;;;;;;;4.63;1.20;;;17.00;90.40;;;;;;5053223;28;20041;-70
2022/09/25 11:34:20;;;;;;;10.82;1.50;;;16.90;90.30;;;;;;5053029;28;20047;-70
2022/09/25 11:37:07;;;;;;;5.88;0.93;;;17.00;90.30;;;;;;5052897;28;20127;-70
2022/09/25 11:42:57;;;;;;;5.30;1.50;;;17.10;90.30;;;;;;5053092;28;20041;-70
2022/09/25 11:45:33;;;;;;;3.17;0.82;;;17.20;90.30;;;;;;5052984;28;20068;-70
2022/09/25 11:48:22;;;;;;;3.42;1.00;;;17.30;90.40;;;;;;5052506;28;20082;-70
2022/09/25 11:51:02;;;;;;;1.50;0.60;;;17.30;90.40;;;;;;5053205;28;20029;-70
2022/09/25 11:53:40;;;;;;;3.58;1.00;;;17.30;90.30;;;;;;5052531;28;20037;-70
2022/09/25 11:56:16;;;;;;;3.08;0.70;;;17.40;90.20;;;;;;5052871;28;20044;-70
2022/09/25 11:59:17;;;;;;;5.53;0.88;;;17.40;90.10;;;;;;5052846;28;20033;-70
2022/09/25 12:01:51;;;;;;;2.90;0.88;;;17.40;90.00;;;;;;5052094;28;20028;-70
2022/09/25 12:04:43;;;;;;;5.28;1.10;;;17.40;90.00;;;;;;5056088;28;20040;-70
2022/09/25 12:07:27;;;;;;;3.38;0.90;;;17.40;90.10;;;;;;5056256;28;20051;-70
2022/09/25 12:10:20;;;;;;;5.85;1.00;;;17.40;90.10;;;;;;5056768;28;20507;-70
2022/09/25 12:13:03;;;;;;;8.57;1.20;;;17.40;90.00;;;;;;5056642;28;20036;-70
2022/09/25 12:16:10;;;;;;;3.03;0.90;;;17.40;90.00;;;;;;5056350;28;20041;-70
2022/09/25 12:18:47;;;;;;;5.93;1.00;;;17.50;90.00;;;;;;5056172;28;20116;-70
2022/09/25 12:21:32;;;;;;;9.88;1.10;;;17.50;90.10;;;;;;5055941;28;20041;-69
2022/09/25 12:24:22;;;;;;;3.45;0.88;;;17.40;89.70;;;;;;5056541;28;20116;-69
2022/09/25 12:27:04;;;;;;;1.15;0.85;;;17.50;90.00;;;;;;5056185;28;20029;-68
2022/09/25 12:29:51;;;;;;;3.97;1.50;;;17.50;89.10;;;;;;5055966;28;20037;-70
2022/09/25 12:32:46;;;;;;;2.83;0.80;;;17.50;89.10;;;;;;5056642;28;20053;-69
2022/09/25 12:35:20;;;;;;;4.05;0.93;;;17.50;89.30;;;;;;5049766;28;20408;-70
2022/09/25 12:37:56;;;;;;;2.97;0.90;;;17.50;89.00;;;;;;5056412;28;20040;-70
2022/09/25 12:40:42;;;;;;;5.22;1.10;;;17.60;88.50;;;;;;5056537;28;20029;-70
2022/09/25 12:43:32;;;;;;;3.30;1.02;;;17.60;88.00;;;;;;5055438;28;20037;-70
2022/09/25 12:46:01;;;;;;;2.85;1.13;;;17.60;87.60;;;;;;5056107;28;20029;-70
2022/09/25 12:48:38;;;;;;;3.67;1.05;;;17.70;87.40;;;;;;5056428;28;20029;-70
2022/09/25 12:51:18;;;;;;;3.72;1.27;;;17.80;87.20;;;;;;5055389;28;20151;-70
2022/09/25 12:54:04;;;;;;;10.50;2.20;;;17.80;86.90;;;;;;5056108;28;20044;-70
2022/09/25 12:56:42;;;;;;;6.97;1.35;;;17.80;87.10;;;;;;5055014;28;20045;-70
2022/09/25 12:59:14;;;;;;;6.22;1.30;;;17.80;87.80;;;;;;5056026;28;20104;-71
2022/09/25 13:02:08;;;;;;;7.90;1.00;;;17.90;87.10;;;;;;5056081;28;20044;-70
2022/09/25 13:05:06;;;;;;;4.22;0.90;;;18.00;87.10;;;;;;5037309;28;20076;-71
2022/09/25 13:07:56;;;;;;;7.25;1.17;;;18.00;86.40;;;;;;5055699;28;20124;-70
2022/09/25 13:10:50;;;;;;;4.70;1.10;;;18.00;86.20;;;;;;5054965;28;20499;-71
2022/09/25 13:13:19;;;;;;;5.57;1.48;;;18.10;86.20;;;;;;5055024;28;20040;-70
2022/09/25 13:15:54;;;;;;;5.75;0.88;;;18.10;86.00;;;;;;5055803;28;20128;-70
2022/09/25 13:18:22;;;;;;;7.28;1.10;;;18.10;85.70;;;;;;5055146;28;20035;-71
2022/09/25 13:20:56;;;;;;;0.88;0.50;;;18.10;85.20;;;;;;5055438;28;20028;-70
2022/09/25 13:23:24;;;;;;;2.92;0.70;;;18.20;85.70;;;;;;5055611;28;20025;-70
2022/09/25 13:25:59;;;;;;;2.60;0.70;;;18.20;85.00;;;;;;5054383;28;20048;-71
2022/09/25 13:28:35;;;;;;;5.53;0.90;;;18.30;84.40;;;;;;5055351;28;20037;-70
2022/09/25 13:31:08;;;;;;;3.70;0.63;;;18.30;83.70;;;;;;5055459;28;20116;-70
2022/09/25 13:34:00;;;;;;;5.32;0.90;;;18.30;84.20;;;;;;5054906;28;20037;-70
2022/09/25 13:36:52;;;;;;;6.05;1.08;;;18.40;84.00;;;;;;5055041;28;20051;-71
2022/09/25 13:42:45;;;;;;;9.18;0.80;;;18.40;82.10;;;;;;5055394;28;20174;-70
2022/09/25 13:45:33;;;;;;;3.00;0.60;;;18.50;82.80;;;;;;5055075;28;20043;-70